Time;durP1;ratioP1;P1;durP2;ratioP2;P2;SDS_P1;SDS_P2;PMS_P1;PMS_P2;Temp;Humidity;BMP_temperature;BMP_pressure;BME280_temperature;BME280_humidity;BME280_pressure;Samples;Min_cycle;Max_cycle;Signal;HPM_P1;HPM_P2
2020/12/09 00:01:12;;;;;;;28.53;24.20;;;;;;;1.60;84.90;99689.53;5084891;28;20211;-81
2020/12/09 00:03:38;;;;;;;42.80;26.40;;;;;;;1.62;84.42;99690.41;5085345;28;20198;-83
2020/12/09 00:06:04;;;;;;;34.47;24.87;;;;;;;1.69;84.16;99693.88;5082514;28;20770;-80
2020/12/09 00:08:30;;;;;;;46.97;27.23;;;;;;;1.66;85.10;99696.44;5080040;28;20212;-79
2020/12/09 00:10:56;;;;;;;42.00;26.97;;;;;;;1.70;84.97;99700.72;5076633;28;20193;-80
2020/12/09 00:13:22;;;;;;;45.37;28.47;;;;;;;1.70;84.75;99703.31;5073158;28;20269;-80
2020/12/09 00:15:47;;;;;;;43.60;27.80;;;;;;;1.65;85.12;99707.59;5085215;28;20260;-80
2020/12/09 00:18:14;;;;;;;51.70;28.80;;;;;;;1.58;85.34;99712.66;5074403;28;20220;-80
2020/12/09 00:20:40;;;;;;;48.00;29.80;;;;;;;1.59;85.05;99713.56;5085324;28;20205;-80
2020/12/09 00:23:06;;;;;;;50.57;30.40;;;;;;;1.62;85.55;99717.84;5076819;28;20274;-80
2020/12/09 00:25:31;;;;;;;46.60;29.27;;;;;;;1.65;85.10;99711.00;5083860;28;20207;-79
2020/12/09 00:27:57;;;;;;;49.87;29.73;;;;;;;1.70;84.84;99711.03;5083948;28;20682;-79
2020/12/09 00:30:23;;;;;;;46.00;29.13;;;;;;;1.75;85.29;99715.34;5082016;28;20196;-79
2020/12/09 00:32:49;;;;;;;42.97;26.90;;;;;;;1.73;84.92;99713.63;5085029;28;20559;-79
2020/12/09 00:35:16;;;;;;;46.90;29.60;;;;;;;1.75;84.53;99720.50;5084148;28;20204;-80
2020/12/09 00:37:42;;;;;;;50.63;31.10;;;;;;;1.73;84.74;99722.19;5075945;28;20271;-80
2020/12/09 00:40:08;;;;;;;48.93;30.93;;;;;;;1.72;84.28;99723.03;5085388;28;20213;-80
2020/12/09 00:42:35;;;;;;;46.37;28.73;;;;;;;1.72;84.58;99712.75;5084756;28;20198;-79
2020/12/09 00:45:01;;;;;;;52.90;31.97;;;;;;;1.74;84.76;99713.59;5084663;28;20201;-81
2020/12/09 00:47:27;;;;;;;55.77;30.30;;;;;;;1.77;85.06;99708.50;5083834;28;20246;-81
2020/12/09 00:50:26;;;;;;;52.80;31.50;;;;;;;1.79;84.67;99706.78;5083816;28;20193;-78
2020/12/09 00:52:45;;;;;;;50.77;30.67;;;;;;;1.82;84.94;99712.81;5084109;28;20577;-80
2020/12/09 00:55:11;;;;;;;48.73;30.80;;;;;;;1.83;85.12;99723.09;5082823;28;20616;-80
2020/12/09 00:57:37;;;;;;;52.43;30.43;;;;;;;1.87;84.40;99716.25;5082710;28;20212;-80
2020/12/09 01:00:05;;;;;;;55.97;32.47;;;;;;;1.83;84.99;99711.97;5082090;28;20200;-79
2020/12/09 01:02:31;;;;;;;58.20;34.30;;;;;;;1.87;84.77;99709.41;5083757;28;20659;-79
2020/12/09 01:04:57;;;;;;;54.50;33.33;;;;;;;1.89;84.37;99712.84;5082150;28;20197;-80
2020/12/09 01:07:22;;;;;;;54.13;32.70;;;;;;;1.88;85.21;99717.97;5082993;28;20217;-80
2020/12/09 01:09:49;;;;;;;67.13;33.53;;;;;;;1.88;84.71;99716.25;5084681;28;20250;-80
2020/12/09 01:12:15;;;;;;;57.97;33.47;;;;;;;1.91;85.14;99713.69;5078364;28;20209;-80
2020/12/09 01:14:41;;;;;;;66.77;34.07;;;;;;;1.90;85.39;99729.13;5081974;28;20203;-80
2020/12/09 01:17:07;;;;;;;64.97;34.27;;;;;;;1.94;85.39;99728.28;5084515;28;20216;-79
2020/12/09 01:19:33;;;;;;;64.43;35.03;;;;;;;1.93;84.69;99722.28;5083705;28;20215;-79
2020/12/09 01:22:04;;;;;;;66.33;35.47;;;;;;;1.95;84.57;99725.72;5081827;28;20559;-79
2020/12/09 01:24:29;;;;;;;67.50;35.03;;;;;;;1.96;85.01;99736.88;5078068;28;20844;-80
2020/12/09 01:26:56;;;;;;;70.33;36.40;;;;;;;1.97;84.77;99730.88;5083686;28;20220;-80
2020/12/09 01:29:22;;;;;;;65.47;36.63;;;;;;;1.95;85.21;99730.03;5082996;28;20322;-80
2020/12/09 01:31:56;;;;;;;66.03;36.00;;;;;;;2.01;85.26;99736.91;5083700;28;20196;-82
2020/12/09 01:34:22;;;;;;;60.40;34.47;;;;;;;2.00;84.91;99733.47;5083070;28;20251;-79
2020/12/09 01:36:48;;;;;;;63.37;34.77;;;;;;;2.02;84.72;99728.31;5083809;28;20221;-80
2020/12/09 01:39:14;;;;;;;65.67;35.77;;;;;;;2.04;85.06;99736.91;5081137;28;20785;-78
2020/12/09 01:41:40;;;;;;;66.03;34.87;;;;;;;2.07;84.59;99742.09;5083610;28;20281;-80
2020/12/09 01:44:06;;;;;;;64.83;33.77;;;;;;;2.06;84.34;99738.66;5083271;28;20205;-80
2020/12/09 01:46:33;;;;;;;70.13;35.90;;;;;;;2.04;84.54;99736.91;5082970;28;20216;-78
2020/12/09 01:49:00;;;;;;;66.23;36.47;;;;;;;2.04;84.98;99729.19;5072452;28;20264;-81
2020/12/09 01:51:27;;;;;;;70.80;36.03;;;;;;;2.01;84.73;99726.63;5079499;28;20614;-80
2020/12/09 01:53:54;;;;;;;68.53;35.83;;;;;;;2.03;84.92;99732.63;5083265;28;20580;-79
2020/12/09 01:56:20;;;;;;;69.60;38.97;;;;;;;2.04;85.40;99724.03;5083170;28;20205;-80
2020/12/09 01:58:49;;;;;;;66.20;35.97;;;;;;;2.09;84.73;99738.66;5079988;28;20270;-80
2020/12/09 02:01:16;;;;;;;65.63;36.00;;;;;;;2.08;84.42;99729.22;5074291;28;20203;-79
2020/12/09 02:03:42;;;;;;;72.80;37.27;;;;;;;2.10;85.08;99730.09;5074391;28;20205;-80
2020/12/09 02:06:08;;;;;;;69.93;36.37;;;;;;;2.11;84.39;99723.22;5083629;28;20208;-79
2020/12/09 02:08:34;;;;;;;72.77;37.47;;;;;;;2.10;84.41;99729.22;5082428;28;20244;-82
2020/12/09 02:11:01;;;;;;;68.37;36.83;;;;;;;2.08;84.35;99730.91;5084537;28;20200;-79
2020/12/09 02:13:28;;;;;;;70.10;36.17;;;;;;;2.08;85.30;99730.91;5081503;28;20270;-79
2020/12/09 02:15:54;;;;;;;74.33;35.60;;;;;;;2.03;84.87;99732.63;5083893;28;20201;-80
2020/12/09 02:18:21;;;;;;;64.20;35.67;;;;;;;2.08;85.22;99725.78;5082843;28;20243;-80
2020/12/09 02:20:47;;;;;;;58.80;34.23;;;;;;;2.12;84.80;99725.81;5079935;28;20247;-79
2020/12/09 02:23:14;;;;;;;65.97;35.63;;;;;;;2.15;84.54;99722.38;5080496;28;20205;-79
2020/12/09 02:25:39;;;;;;;60.17;34.77;;;;;;;2.19;85.36;99727.53;5084539;28;20205;-78
2020/12/09 02:28:05;;;;;;;70.67;36.37;;;;;;;2.21;85.34;99719.81;5084152;28;20315;-79
2020/12/09 02:30:31;;;;;;;60.10;33.73;;;;;;;2.24;85.02;99713.81;5084368;28;20203;-79
2020/12/09 02:32:57;;;;;;;65.87;35.77;;;;;;;2.23;84.80;99712.97;5074146;28;20209;-80
2020/12/09 02:35:23;;;;;;;65.70;36.43;;;;;;;2.24;84.97;99706.09;5084018;28;20216;-80
2020/12/09 02:37:49;;;;;;;64.57;35.93;;;;;;;2.27;84.62;99709.53;5075581;28;20267;-79
2020/12/09 02:40:16;;;;;;;65.40;36.67;;;;;;;2.26;85.13;99706.94;5084926;28;20193;-82
2020/12/09 02:42:42;;;;;;;65.43;35.67;;;;;;;2.26;84.80;99712.09;5083564;28;20201;-80
2020/12/09 02:45:08;;;;;;;74.67;38.27;;;;;;;2.25;85.49;99713.81;5083837;28;20217;-80
2020/12/09 02:47:34;;;;;;;66.43;34.73;;;;;;;2.26;85.15;99714.69;5083310;28;20278;-79
2020/12/09 02:50:00;;;;;;;72.53;37.07;;;;;;;2.28;85.74;99721.56;5084354;28;20197;-79
2020/12/09 02:52:25;;;;;;;71.00;35.87;;;;;;;2.28;85.54;99724.16;5084537;28;20236;-80
2020/12/09 02:54:51;;;;;;;73.47;38.23;;;;;;;2.28;85.47;99731.88;5083167;28;20193;-81
2020/12/09 02:57:18;;;;;;;71.73;38.27;;;;;;;2.28;85.62;99731.88;5084585;28;20201;-80
2020/12/09 02:59:44;;;;;;;73.57;37.33;;;;;;;2.31;85.87;99731.00;5080380;28;20198;-78
2020/12/09 03:02:09;;;;;;;66.77;35.53;;;;;;;2.35;85.33;99736.16;5086777;28;20208;-79
2020/12/09 03:04:35;;;;;;;62.30;35.70;;;;;;;2.37;85.52;99739.59;5086150;28;20197;-79
2020/12/09 03:07:01;;;;;;;71.10;37.27;;;;;;;2.35;85.54;99743.91;5075857;28;20217;-80
2020/12/09 03:09:27;;;;;;;74.33;38.00;;;;;;;2.39;85.40;99744.78;5083232;28;20220;-80
2020/12/09 03:11:53;;;;;;;62.30;35.40;;;;;;;2.45;85.54;99749.09;5083925;28;20216;-81
2020/12/09 03:14:19;;;;;;;74.73;38.47;;;;;;;2.44;84.66;99748.22;5081066;28;20209;-81
2020/12/09 03:16:45;;;;;;;77.73;38.23;;;;;;;2.37;85.11;99757.63;5085718;28;20667;-81
2020/12/09 03:19:11;;;;;;;66.83;36.87;;;;;;;2.35;86.16;99755.91;5086067;28;20223;-81
2020/12/09 03:21:40;;;;;;;73.70;38.00;;;;;;;2.36;85.46;99749.94;5086032;28;20205;-80
2020/12/09 03:24:06;;;;;;;74.73;37.80;;;;;;;2.41;85.83;99750.78;5083819;28;20202;-81
2020/12/09 03:26:32;;;;;;;77.67;39.47;;;;;;;2.38;85.83;99758.53;5084353;28;20229;-78
2020/12/09 03:28:57;;;;;;;72.37;37.30;;;;;;;2.46;85.00;99754.25;5083902;28;20257;-79
2020/12/09 03:31:24;;;;;;;81.07;39.37;;;;;;;2.47;85.38;99755.09;5084164;28;20264;-80
2020/12/09 03:33:50;;;;;;;73.47;37.93;;;;;;;2.49;84.78;99753.38;5083891;28;20799;-82
2020/12/09 03:36:16;;;;;;;76.03;39.57;;;;;;;2.52;84.87;99743.09;5076148;28;20213;-80
2020/12/09 03:38:42;;;;;;;76.13;37.30;;;;;;;2.51;85.16;99738.78;5082875;28;20714;-83
2020/12/09 03:41:08;;;;;;;69.03;36.50;;;;;;;2.49;84.60;99735.34;5084071;28;20248;-80
2020/12/09 03:43:33;;;;;;;71.60;38.20;;;;;;;2.49;84.92;99738.78;5083768;28;20215;-79
2020/12/09 03:45:59;;;;;;;79.03;39.33;;;;;;;2.54;85.19;99755.13;5083547;28;20197;-78
2020/12/09 03:48:26;;;;;;;71.13;37.00;;;;;;;2.56;84.62;99755.13;5078176;28;20229;-80
2020/12/09 03:50:52;;;;;;;70.97;36.70;;;;;;;2.56;84.54;99757.72;5080130;28;20250;-80
2020/12/09 03:53:20;;;;;;;74.87;37.47;;;;;;;2.56;84.54;99760.28;5083335;28;20239;-81
2020/12/09 03:55:46;;;;;;;76.97;37.40;;;;;;;2.56;84.30;99749.97;5082203;28;20228;-80
2020/12/09 03:58:12;;;;;;;74.07;37.07;;;;;;;2.54;85.13;99756.84;5081939;28;20329;-78
2020/12/09 04:00:38;;;;;;;78.03;39.20;;;;;;;2.55;84.98;99748.25;5077760;28;20197;-80
2020/12/09 04:03:03;;;;;;;76.70;37.63;;;;;;;2.54;84.56;99747.41;5079878;28;20206;-80
2020/12/09 04:05:30;;;;;;;70.87;37.13;;;;;;;2.51;84.36;99749.09;5082045;28;20205;-80
2020/12/09 04:07:56;;;;;;;76.40;38.03;;;;;;;2.52;84.62;99750.84;5080524;28;20236;-79
2020/12/09 04:10:22;;;;;;;73.40;39.57;;;;;;;2.52;85.06;99750.84;5081504;28;20220;-78
2020/12/09 04:12:48;;;;;;;79.90;39.27;;;;;;;2.59;84.70;99760.28;5079147;28;20204;-81
2020/12/09 04:15:15;;;;;;;78.40;39.13;;;;;;;2.59;84.74;99760.28;5081620;28;20232;-80
2020/12/09 04:17:40;;;;;;;78.97;39.07;;;;;;;2.58;85.12;99756.84;5081362;28;20262;-78
2020/12/09 04:20:08;;;;;;;77.40;41.20;;;;;;;2.62;85.12;99762.88;5081319;28;20206;-81
2020/12/09 04:22:34;;;;;;;78.43;38.90;;;;;;;2.57;84.83;99772.28;5072908;28;20201;-80
2020/12/09 04:25:00;;;;;;;79.53;38.57;;;;;;;2.58;84.32;99774.03;5081647;28;20666;-79
2020/12/09 04:27:26;;;;;;;74.50;37.03;;;;;;;2.57;84.96;99765.41;5080815;28;20231;-80
2020/12/09 04:29:52;;;;;;;78.47;38.80;;;;;;;2.59;84.17;99765.44;5080081;28;20667;-81
2020/12/09 04:32:18;;;;;;;82.40;41.03;;;;;;;2.59;84.54;99763.72;5080376;28;20197;-80
2020/12/09 04:34:44;;;;;;;83.57;41.80;;;;;;;2.57;85.01;99770.56;5080638;28;20201;-81
2020/12/09 04:37:11;;;;;;;79.60;38.83;;;;;;;2.61;84.64;99768.00;5080757;28;20208;-80
2020/12/09 04:39:38;;;;;;;75.93;38.50;;;;;;;2.59;84.85;99773.16;5080087;28;20209;-80
2020/12/09 04:42:05;;;;;;;84.13;39.87;;;;;;;2.59;84.92;99766.28;5080288;28;20720;-80
2020/12/09 04:44:31;;;;;;;76.23;39.43;;;;;;;2.62;85.14;99764.56;5078347;28;20208;-80
2020/12/09 04:47:03;;;;;;;78.57;40.47;;;;;;;2.62;84.54;99765.44;5080500;28;20278;-79
2020/12/09 04:49:39;;;;;;;79.07;40.17;;;;;;;2.63;85.07;99763.72;5078890;28;20250;-78
2020/12/09 04:52:34;;;;;;;76.97;39.70;;;;;;;2.61;85.32;99765.44;5079643;28;20189;-80
2020/12/09 04:55:07;;;;;;;80.67;39.53;;;;;;;2.62;85.47;99768.03;5080744;28;20230;-79
2020/12/09 04:57:42;;;;;;;80.70;38.60;;;;;;;2.65;84.53;99768.00;5086260;28;20604;-80
2020/12/09 05:00:10;;;;;;;84.47;40.27;;;;;;;2.67;84.66;99766.31;5086319;28;20227;-80
2020/12/09 05:02:44;;;;;;;82.83;41.27;;;;;;;2.69;84.34;99768.88;5086022;28;20200;-79
2020/12/09 05:05:11;;;;;;;80.00;38.47;;;;;;;2.69;84.52;99767.16;5083522;28;20197;-81
2020/12/09 05:07:38;;;;;;;79.20;40.43;;;;;;;2.68;84.26;99754.31;5077748;28;20231;-81
2020/12/09 05:10:07;;;;;;;73.93;39.03;;;;;;;2.69;84.80;99758.59;5083695;28;20219;-80
2020/12/09 05:12:41;;;;;;;84.40;39.50;;;;;;;2.63;85.08;99751.69;5086861;28;20291;-82
2020/12/09 05:15:10;;;;;;;82.17;40.30;;;;;;;2.67;85.30;99757.72;5084389;28;20232;-82
2020/12/09 05:17:46;;;;;;;82.17;40.17;;;;;;;2.61;85.79;99757.72;5086011;28;20254;-79
2020/12/09 05:20:12;;;;;;;80.83;38.13;;;;;;;2.69;85.43;99766.31;5082933;28;20201;-80
2020/12/09 05:22:45;;;;;;;80.30;41.57;;;;;;;2.73;84.88;99779.19;5077378;28;20260;-80
2020/12/09 05:25:12;;;;;;;76.10;40.37;;;;;;;2.73;84.89;99775.78;5085381;28;20197;-81
2020/12/09 05:27:38;;;;;;;84.40;41.17;;;;;;;2.76;84.55;99768.06;5084582;28;20221;-79
2020/12/09 05:30:04;;;;;;;81.30;40.00;;;;;;;2.75;84.46;99761.16;5084576;28;20235;-80
2020/12/09 05:32:30;;;;;;;76.90;38.90;;;;;;;2.78;84.83;99772.34;5086219;28;20264;-81
2020/12/09 05:34:55;;;;;;;86.47;41.43;;;;;;;2.74;84.19;99770.63;5084723;28;20291;-81
2020/12/09 05:37:22;;;;;;;86.37;41.00;;;;;;;2.72;84.55;99768.91;5087513;28;20193;-80
2020/12/09 05:39:52;;;;;;;82.00;40.23;;;;;;;2.71;84.70;99767.19;5084131;28;20234;-78
2020/12/09 05:42:20;;;;;;;79.83;40.97;;;;;;;2.71;84.48;99780.91;5078425;28;20196;-81
2020/12/09 05:44:47;;;;;;;81.53;40.87;;;;;;;2.77;84.43;99780.06;5085779;28;20205;-82
2020/12/09 05:47:13;;;;;;;87.30;40.83;;;;;;;2.74;84.27;99783.50;5069953;28;20227;-80
2020/12/09 05:49:41;;;;;;;87.87;42.53;;;;;;;2.72;84.61;99786.94;5087417;28;20204;-81
2020/12/09 05:52:09;;;;;;;83.10;42.43;;;;;;;2.77;84.43;99790.38;5088059;28;20261;-81
2020/12/09 05:54:36;;;;;;;94.73;43.33;;;;;;;2.79;84.44;99788.66;5076809;28;20572;-81
2020/12/09 05:57:04;;;;;;;87.40;41.43;;;;;;;2.79;84.33;99778.34;5085653;28;20227;-82
2020/12/09 05:59:35;;;;;;;88.07;43.23;;;;;;;2.81;84.74;99791.25;5085609;28;20221;-81
2020/12/09 06:02:12;;;;;;;82.50;41.57;;;;;;;2.80;84.87;99782.66;5086364;28;20342;-81
2020/12/09 06:04:53;;;;;;;81.77;42.50;;;;;;;2.78;85.28;99792.97;5078180;28;20230;-81
2020/12/09 06:07:19;;;;;;;91.30;41.00;;;;;;;2.88;84.94;99790.41;5085778;28;20216;-82
2020/12/09 06:10:08;;;;;;;86.73;42.30;;;;;;;2.82;84.65;99796.41;5079507;28;20205;-82
2020/12/09 06:12:52;;;;;;;80.57;41.17;;;;;;;2.83;84.68;99794.69;5078877;28;20207;-81
2020/12/09 06:15:21;;;;;;;75.17;38.83;;;;;;;2.81;84.63;99804.13;5086209;28;20270;-81
2020/12/09 06:17:46;;;;;;;81.47;41.93;;;;;;;2.84;85.08;99805.00;5084808;28;20246;-82
2020/12/09 06:20:13;;;;;;;83.50;41.67;;;;;;;2.85;84.92;99809.28;5084103;28;20232;-80
2020/12/09 06:22:39;;;;;;;84.17;42.23;;;;;;;2.87;85.27;99802.41;5076568;28;20648;-80
2020/12/09 06:25:06;;;;;;;91.47;41.97;;;;;;;2.88;84.33;99813.63;5085452;28;20231;-81
2020/12/09 06:27:33;;;;;;;88.13;42.93;;;;;;;2.79;84.98;99817.00;5086840;28;20993;-80
2020/12/09 06:29:59;;;;;;;86.37;42.23;;;;;;;2.77;85.77;99811.00;5081926;28;20222;-81
2020/12/09 06:32:26;;;;;;;85.13;43.00;;;;;;;2.88;85.04;99806.72;5080761;28;20235;-78
2020/12/09 06:35:05;;;;;;;88.53;42.90;;;;;;;2.90;85.02;99804.16;5076828;28;20229;-82
2020/12/09 06:37:31;;;;;;;79.10;42.00;;;;;;;2.94;84.42;99811.91;5083409;28;20204;-81
2020/12/09 06:40:07;;;;;;;77.47;39.87;;;;;;;2.92;84.91;99812.75;5091458;28;20237;-81
2020/12/09 06:42:33;;;;;;;85.10;43.07;;;;;;;2.87;85.07;99807.56;5083456;28;20197;-81
2020/12/09 06:45:01;;;;;;;80.33;42.33;;;;;;;2.87;85.16;99812.72;5085356;28;20226;-81
2020/12/09 06:47:27;;;;;;;81.30;41.73;;;;;;;2.91;84.69;99805.88;5080507;28;20205;-81
2020/12/09 06:49:54;;;;;;;81.93;41.87;;;;;;;2.87;84.89;99810.16;5083738;28;20202;-80
2020/12/09 06:52:35;;;;;;;88.90;42.93;;;;;;;2.86;85.54;99805.03;5082315;28;20194;-81
2020/12/09 06:55:02;;;;;;;82.20;41.20;;;;;;;2.87;85.16;99809.31;5083141;28;20577;-81
2020/12/09 06:57:33;;;;;;;82.50;41.37;;;;;;;2.85;85.38;99805.88;5083469;28;20202;-80
2020/12/09 07:00:18;;;;;;;78.70;42.13;;;;;;;2.83;85.67;99805.00;5087160;28;20668;-79
2020/12/09 07:03:24;;;;;;;76.07;41.40;;;;;;;2.91;86.09;99811.88;5082599;28;20205;-82
2020/12/09 07:05:49;;;;;;;90.73;42.83;;;;;;;2.75;85.95;99823.88;5080068;28;20197;-81
2020/12/09 07:08:19;;;;;;;84.67;42.07;;;;;;;2.78;85.56;99838.50;5081696;28;20244;-81
2020/12/09 07:10:45;;;;;;;91.07;42.60;;;;;;;2.80;85.49;99835.94;5084147;28;20223;-80
2020/12/09 07:13:12;;;;;;;78.93;40.03;;;;;;;2.89;85.19;99823.06;5078266;28;20667;-81
2020/12/09 07:15:42;;;;;;;79.03;41.60;;;;;;;2.94;85.20;99829.94;5083686;28;20200;-79
2020/12/09 07:18:09;;;;;;;82.13;43.07;;;;;;;2.96;85.41;99830.81;5080715;28;20227;-81
2020/12/09 07:20:36;;;;;;;79.47;41.33;;;;;;;2.94;85.42;99832.53;5082133;28;20200;-79
2020/12/09 07:23:03;;;;;;;79.93;41.00;;;;;;;2.94;85.29;99835.09;5078845;28;20649;-82
2020/12/09 07:25:29;;;;;;;83.10;42.23;;;;;;;2.99;84.89;99842.84;5083004;28;20554;-80
2020/12/09 07:27:56;;;;;;;88.13;44.83;;;;;;;2.96;85.20;99850.56;5084976;28;20297;-80
2020/12/09 07:30:22;;;;;;;84.23;43.40;;;;;;;2.99;85.24;99848.00;5081123;28;20206;-81
2020/12/09 07:32:49;;;;;;;83.30;42.43;;;;;;;3.01;85.25;99853.16;5079204;28;20219;-80
2020/12/09 07:35:17;;;;;;;79.27;41.87;;;;;;;2.96;85.38;99856.59;5085196;28;20204;-79
2020/12/09 07:37:47;;;;;;;85.90;40.07;;;;;;;2.95;85.57;99852.31;5075394;28;20217;-80
2020/12/09 07:40:17;;;;;;;83.00;40.83;;;;;;;2.98;85.26;99861.75;5082510;28;20203;-81
2020/12/09 07:42:43;;;;;;;83.83;42.00;;;;;;;3.06;85.32;99869.50;5078239;28;20229;-81
2020/12/09 07:45:15;;;;;;;79.57;42.63;;;;;;;3.11;85.14;99862.63;5079905;28;20227;-80
2020/12/09 07:47:41;;;;;;;86.33;42.80;;;;;;;3.16;85.68;99866.09;5082832;28;20387;-81
2020/12/09 07:50:08;;;;;;;81.60;42.33;;;;;;;3.04;84.91;99863.50;5075872;28;20203;-81
2020/12/09 07:52:36;;;;;;;84.93;41.70;;;;;;;3.06;84.86;99866.94;5071011;28;20203;-82
2020/12/09 07:55:06;;;;;;;84.20;41.53;;;;;;;3.08;84.79;99863.50;5076705;28;20196;-82
2020/12/09 07:57:34;;;;;;;88.10;43.33;;;;;;;3.16;85.03;99855.78;5078370;28;20291;-81
2020/12/09 08:00:01;;;;;;;77.23;39.87;;;;;;;3.20;84.40;99854.91;5077027;28;20209;-81
2020/12/09 08:02:28;;;;;;;77.73;42.30;;;;;;;3.12;84.39;99847.16;5071205;28;20664;-81
2020/12/09 08:05:26;;;;;;;77.87;41.47;;;;;;;3.16;84.16;99846.31;5075734;28;20208;-81
2020/12/09 08:07:57;;;;;;;88.33;43.47;;;;;;;3.20;84.19;99839.44;5074135;28;20251;-81
2020/12/09 08:10:34;;;;;;;85.77;43.03;;;;;;;3.18;84.65;99841.16;5074434;28;20193;-81
2020/12/09 08:13:06;;;;;;;95.17;47.60;;;;;;;3.18;84.19;99838.59;5071879;28;20205;-80
2020/12/09 08:15:33;;;;;;;90.60;45.37;;;;;;;3.17;84.00;99840.31;5075325;28;20192;-80
2020/12/09 08:18:01;;;;;;;88.83;45.40;;;;;;;3.20;84.23;99842.03;5072820;28;20621;-79
2020/12/09 08:20:27;;;;;;;86.83;43.97;;;;;;;3.18;83.77;99843.75;5075137;28;20196;-80
2020/12/09 08:23:02;;;;;;;79.67;42.07;;;;;;;3.18;83.85;99844.59;5078552;28;20736;-80
2020/12/09 08:25:30;;;;;;;80.43;43.37;;;;;;;3.15;84.07;99847.19;5078845;28;20258;-80
2020/12/09 08:28:05;;;;;;;81.53;44.70;;;;;;;3.16;84.41;99854.03;5071393;28;20236;-81
2020/12/09 08:30:31;;;;;;;87.13;44.20;;;;;;;3.13;84.39;99859.22;5079086;28;20265;-81
2020/12/09 08:33:16;;;;;;;83.90;44.23;;;;;;;3.18;84.64;99859.22;5074065;28;20227;-79
2020/12/09 08:36:04;;;;;;;94.50;47.63;;;;;;;3.20;83.75;99869.53;5074614;28;20670;-79
2020/12/09 08:38:37;;;;;;;101.90;46.13;;;;;;;3.12;84.70;99880.69;5073564;28;20224;-77
2020/12/09 08:41:05;;;;;;;87.43;43.10;;;;;;;3.19;84.52;99881.53;5077028;28;20198;-79
2020/12/09 08:43:34;;;;;;;88.43;44.27;;;;;;;3.20;84.18;99885.00;5078079;28;20209;-81
2020/12/09 08:46:01;;;;;;;80.20;42.47;;;;;;;3.23;83.86;99885.88;5078144;28;20248;-79
2020/12/09 08:48:27;;;;;;;78.17;42.67;;;;;;;3.30;83.72;99891.91;5074163;28;20248;-79
2020/12/09 08:50:53;;;;;;;76.63;42.40;;;;;;;3.30;84.17;99895.34;5075184;28;20224;-81
2020/12/09 08:53:20;;;;;;;89.33;45.20;;;;;;;3.27;83.63;99903.09;5073260;28;20201;-81
2020/12/09 08:55:48;;;;;;;90.67;47.77;;;;;;;3.26;83.77;99900.50;5074824;28;20302;-80
2020/12/09 08:58:16;;;;;;;88.80;45.57;;;;;;;3.30;83.45;99894.47;5073528;28;20246;-81
2020/12/09 09:03:47;;;;;;;81.23;42.93;;;;;;;3.37;83.53;99903.97;5073313;28;20204;-81
2020/12/09 09:06:13;;;;;;;90.33;45.03;;;;;;;3.40;83.79;99906.53;5074996;28;20209;-82
2020/12/09 09:08:42;;;;;;;89.37;45.43;;;;;;;3.38;83.35;99903.09;5078612;28;20225;-79
2020/12/09 09:11:09;;;;;;;89.13;45.23;;;;;;;3.42;83.30;99911.69;5077001;28;20201;-83
2020/12/09 09:13:35;;;;;;;85.07;44.53;;;;;;;3.45;83.08;99912.56;5067322;28;20212;-80
2020/12/09 09:16:06;;;;;;;83.33;43.03;;;;;;;3.52;83.48;99918.59;5064991;28;20207;-81
2020/12/09 09:18:32;;;;;;;88.97;47.33;;;;;;;3.49;83.33;99919.47;5070043;28;20706;-83
2020/12/09 09:20:58;;;;;;;90.53;44.47;;;;;;;3.49;83.82;99923.72;5067978;28;20288;-80
2020/12/09 09:23:25;;;;;;;87.97;45.50;;;;;;;3.53;83.54;99925.50;5069624;28;20574;-82
2020/12/09 09:25:51;;;;;;;85.70;44.23;;;;;;;3.50;84.05;99928.03;5073726;28;21061;-82
2020/12/09 09:28:21;;;;;;;95.90;46.20;;;;;;;3.50;83.19;99921.16;5072324;28;20233;-81
2020/12/09 09:30:48;;;;;;;86.50;44.53;;;;;;;3.53;83.47;99928.06;5071776;28;20550;-81
2020/12/09 09:33:14;;;;;;;83.47;43.70;;;;;;;3.53;83.39;99921.19;5070011;28;20211;-79
2020/12/09 09:35:40;;;;;;;86.03;44.40;;;;;;;3.54;83.54;99928.03;5071654;28;20201;-79
2020/12/09 09:38:06;;;;;;;82.63;42.40;;;;;;;3.55;83.19;99928.94;5069677;28;20233;-81
2020/12/09 09:43:29;;;;;;;90.33;44.77;;;;;;;3.65;83.37;99925.50;5068199;28;20681;-81
2020/12/09 09:48:53;;;;;;;102.83;48.30;;;;;;;3.64;83.23;99930.66;5072843;28;20847;-81
2020/12/09 09:51:19;;;;;;;102.90;46.57;;;;;;;3.67;82.96;99933.25;5074818;28;20202;-81
2020/12/09 09:53:45;;;;;;;89.37;45.07;;;;;;;3.67;82.95;99936.69;5072326;28;20232;-81
2020/12/09 09:56:11;;;;;;;91.70;46.33;;;;;;;3.75;82.78;99934.97;5071116;28;20238;-81
2020/12/09 09:58:45;;;;;;;96.73;45.20;;;;;;;3.69;83.00;99937.53;5073671;28;20706;-81
2020/12/09 10:01:14;;;;;;;104.47;46.63;;;;;;;3.49;83.17;99944.38;5074061;28;20205;-81
2020/12/09 10:03:47;;;;;;;107.00;46.67;;;;;;;3.53;83.94;99941.81;5071267;28;20201;-83
2020/12/09 10:06:13;;;;;;;95.73;45.03;;;;;;;3.63;83.27;99932.38;5074135;28;20207;-82
2020/12/09 10:08:39;;;;;;;98.20;45.77;;;;;;;3.66;83.47;99927.19;5074573;28;20248;-81
2020/12/09 10:11:05;;;;;;;105.23;45.90;;;;;;;3.70;83.76;99928.91;5074922;28;20666;-80
2020/12/09 10:13:31;;;;;;;99.03;48.33;;;;;;;3.67;83.28;99925.50;5069843;28;20647;-81
2020/12/09 10:15:57;;;;;;;100.70;46.00;;;;;;;3.67;83.37;99931.53;5071637;28;20201;-80
2020/12/09 10:18:26;;;;;;;103.17;46.87;;;;;;;3.68;83.85;99922.03;5072605;28;20217;-79
2020/12/09 10:20:52;;;;;;;105.50;46.73;;;;;;;3.73;83.50;99916.03;5076551;28;20659;-81
2020/12/09 10:23:18;;;;;;;95.70;45.63;;;;;;;3.76;83.53;99921.19;5077835;28;20224;-80
2020/12/09 10:25:45;;;;;;;95.33;43.67;;;;;;;3.81;83.52;99913.47;5077129;28;20227;-79
2020/12/09 10:28:11;;;;;;;87.10;42.47;;;;;;;3.85;82.63;99912.59;5078789;28;20236;-81
2020/12/09 10:30:37;;;;;;;93.07;43.60;;;;;;;3.86;83.05;99911.72;5079855;28;20280;-81
2020/12/09 10:33:03;;;;;;;84.07;41.97;;;;;;;3.71;82.51;99910.00;5075319;28;20679;-81
2020/12/09 10:35:29;;;;;;;96.10;43.77;;;;;;;3.70;82.75;99904.84;5076935;28;20196;-82
2020/12/09 10:37:56;;;;;;;94.30;41.87;;;;;;;3.71;82.90;99904.00;5078531;28;20221;-82
2020/12/09 10:40:28;;;;;;;82.53;40.40;;;;;;;3.54;83.18;99909.13;5077419;28;20201;-80
2020/12/09 10:42:57;;;;;;;85.00;40.87;;;;;;;3.70;82.88;99910.00;5078212;28;20289;-82
2020/12/09 10:45:23;;;;;;;88.80;40.07;;;;;;;3.50;83.00;99913.41;5079400;28;20197;-81
2020/12/09 10:47:49;;;;;;;92.97;40.80;;;;;;;3.24;83.84;99907.38;5073892;28;20224;-80
2020/12/09 10:50:16;;;;;;;87.40;39.87;;;;;;;3.18;84.29;99903.91;5077417;28;20252;-79
2020/12/09 10:52:42;;;;;;;89.93;41.53;;;;;;;3.30;84.28;99902.22;5070113;28;20209;-81
2020/12/09 10:55:08;;;;;;;98.27;41.57;;;;;;;3.16;84.49;99913.34;5077112;28;20205;-80
2020/12/09 10:57:34;;;;;;;93.37;40.83;;;;;;;3.14;84.47;99912.50;5078040;28;20848;-80
2020/12/09 11:00:00;;;;;;;97.10;40.70;;;;;;;3.07;84.68;99913.34;5076684;28;20262;-82
2020/12/09 11:02:26;;;;;;;92.67;41.00;;;;;;;2.86;84.80;99923.59;5073403;28;20194;-81
2020/12/09 11:04:51;;;;;;;101.63;42.23;;;;;;;2.80;85.68;99915.84;5074851;28;20208;-81
2020/12/09 11:07:18;;;;;;;103.40;43.43;;;;;;;2.75;85.59;99919.22;5076113;28;20733;-82
2020/12/09 11:09:44;;;;;;;99.53;43.47;;;;;;;2.93;85.86;99915.88;5072129;28;20707;-80
2020/12/09 11:12:10;;;;;;;99.67;41.17;;;;;;;2.98;86.08;99916.75;5069559;28;20288;-80
2020/12/09 11:14:36;;;;;;;93.13;41.63;;;;;;;3.11;85.05;99914.19;5070465;28;20201;-79
2020/12/09 11:17:50;;;;;;;97.57;40.00;;;;;;;3.15;85.26;99909.06;5076646;28;20197;-81
2020/12/09 11:20:58;;;;;;;96.33;39.27;;;;;;;3.23;84.04;99908.22;5060400;28;20205;-82
2020/12/09 11:23:27;;;;;;;93.17;38.20;;;;;;;3.19;84.10;99909.91;5074331;28;20215;-78
2020/12/09 11:25:56;;;;;;;92.37;39.93;;;;;;;3.17;84.85;99916.78;5076597;28;20205;-81
2020/12/09 11:28:22;;;;;;;95.73;39.97;;;;;;;3.19;84.56;99912.50;5076786;28;20236;-81
2020/12/09 11:30:51;;;;;;;98.63;40.40;;;;;;;3.12;84.55;99916.78;5076699;28;20200;-81
2020/12/09 11:33:17;;;;;;;98.77;41.50;;;;;;;2.67;85.32;99902.00;5070055;28;20211;-80
2020/12/09 11:35:45;;;;;;;103.70;43.37;;;;;;;2.87;85.92;99907.25;5072848;28;20269;-81
2020/12/09 11:38:11;;;;;;;103.40;41.43;;;;;;;2.77;86.06;99902.06;5072687;28;20292;-80